Portada
METAR-TAF:

METAR-TAF

Aeropuertos :

Lusaka, Zambia

Aeropuerto Internacional de Lusaka

latitud: 15-19-51S, longitud: 028-27-09E, altitud: 1152 m

Observación

El informe se hizo hace 2 horas y 29 minutos, a las 17:00 UTC
Viento 4 kt del sur-sureste
Temperatura 22°C
Humedad 33%
Presión 1016 hPa
Visibilidad: 9000 m

METAR: FLKK 171700Z 15004KT 9000 22/05 Q1016

Hora: 21:29 (19:29 UTC)

Pronóstico

El informe se hizo hace 27 horas y 29 minutos, a las 16:00 UTC
Pronóstico válido del 16 a las 18 UTC al 17 a las 24 UTC
Viento 5 kt del este con ráfagas de 15 kt
Visibilidad 10 km o más
sin nubes por debajo de 1500 m y sin presencia de cumulonimbus.

TAF: FLKK 161600Z 1618/1724 09005G15KT CAVOK

Observaciones y pronósticos meteorológicos de más de 4000 aeropuertos (mensajes METAR y TAF).

Los puntos amarillos y rojos representan las estaciones disponibles.

Ponga el ratón en el punto deseado para ver el nombre de la estación.

Haga clic para ver las observaciones y los pronósticos meteorológicos.

Para cambiar el mapa : haga clic en los botones verdes con una cruz de color negro para hacer un zoom, en el botón verde con un guión para alejar o en las flechas verdes para mapas adyacentes.


METAR-TAF: